Time;durP1;ratioP1;P1;durP2;ratioP2;P2;SDS_P1;SDS_P2;PMS_P1;PMS_P2;Temp;Humidity;BMP_temperature;BMP_pressure;BME280_temperature;BME280_humidity;BME280_pressure;Samples;Min_cycle;Max_cycle;Signal;HPM_P1;HPM_P2
2021/06/25 00:00:15;;;;;;;24.35;7.28;;;;;;;24.85;51.74;94050.16;5058286;28;20119;-77
2021/06/25 00:02:41;;;;;;;34.90;8.05;;;;;;;24.79;52.27;94054.47;5057472;28;20036;-77
2021/06/25 00:05:08;;;;;;;30.65;7.43;;;;;;;24.69;51.92;94052.59;5057857;28;20067;-77
2021/06/25 00:07:33;;;;;;;27.20;7.07;;;;;;;24.70;52.41;94063.09;5054964;28;20093;-77
2021/06/25 00:09:59;;;;;;;21.70;6.25;;;;;;;24.66;52.56;94048.72;5058669;28;20135;-77
2021/06/25 00:12:24;;;;;;;27.88;6.82;;;;;;;24.65;51.84;94049.09;5058287;28;20072;-77
2021/06/25 00:14:53;;;;;;;30.30;6.88;;;;;;;24.61;52.86;94060.81;5062940;28;20080;-79
2021/06/25 00:17:18;;;;;;;23.52;6.63;;;;;;;24.54;53.08;94058.13;5059333;28;20029;-78
2021/06/25 00:19:45;;;;;;;18.00;6.30;;;;;;;24.43;53.32;94066.31;5064201;28;20024;-78
2021/06/25 00:22:11;;;;;;;25.52;7.05;;;;;;;24.39;52.71;94078.41;5061539;28;20106;-80
2021/06/25 00:24:37;;;;;;;29.33;8.00;;;;;;;24.38;51.76;94080.38;5056311;28;20055;-81
2021/06/25 00:27:02;;;;;;;43.60;8.00;;;;;;;24.38;51.54;94079.56;5068305;28;20120;-80
2021/06/25 00:29:28;;;;;;;28.42;7.63;;;;;;;24.35;51.88;94074.94;5064106;28;20020;-81
2021/06/25 00:31:53;;;;;;;28.75;7.00;;;;;;;24.39;51.60;94081.13;5055077;28;20044;-78
2021/06/25 00:34:19;;;;;;;29.17;6.20;;;;;;;24.41;51.09;94071.41;5057958;28;20039;-78
2021/06/25 00:36:44;;;;;;;30.15;6.35;;;;;;;24.44;51.95;94072.53;5064815;28;20470;-78
2021/06/25 00:39:10;;;;;;;26.77;7.15;;;;;;;24.47;52.11;94060.09;5066319;28;20078;-78
2021/06/25 00:41:35;;;;;;;22.40;7.25;;;;;;;24.46;52.70;94059.28;5058269;28;20024;-78
2021/06/25 00:44:01;;;;;;;29.98;8.77;;;;;;;24.44;53.32;94056.19;5055621;28;20021;-78
2021/06/25 00:46:29;;;;;;;30.23;7.57;;;;;;;24.42;53.66;94050.38;5066793;28;20106;-78
2021/06/25 00:48:54;;;;;;;33.08;7.55;;;;;;;24.39;53.38;94053.91;5058562;28;20024;-78
2021/06/25 00:51:20;;;;;;;34.90;6.70;;;;;;;24.38;53.10;94052.34;5063715;28;20481;-78
2021/06/25 00:53:45;;;;;;;38.08;8.23;;;;;;;24.37;52.78;94050.78;5060149;28;20037;-84
2021/06/25 00:56:12;;;;;;;25.10;6.97;;;;;;;24.41;52.47;94057.00;5050079;28;20018;-84
2021/06/25 00:58:38;;;;;;;20.80;6.82;;;;;;;24.42;52.80;94053.09;5050194;28;20021;-84
2021/06/25 01:01:03;;;;;;;25.33;6.78;;;;;;;24.31;52.45;94047.69;5062498;28;20025;-84
2021/06/25 01:03:29;;;;;;;31.20;7.25;;;;;;;24.22;50.85;94045.41;5063848;28;20036;-84
2021/06/25 01:05:54;;;;;;;38.65;6.97;;;;;;;24.22;50.45;94044.63;5070165;28;20028;-81
2021/06/25 01:08:22;;;;;;;36.33;6.68;;;;;;;24.23;50.47;94046.19;5053943;28;20032;-79
2021/06/25 01:10:48;;;;;;;21.60;5.45;;;;;;;24.23;50.57;94052.41;5050536;28;20028;-79
2021/06/25 01:13:14;;;;;;;35.90;6.30;;;;;;;24.26;50.28;94055.50;5063946;28;20469;-79
2021/06/25 01:15:39;;;;;;;32.55;7.43;;;;;;;24.26;50.90;94058.22;5051423;28;20497;-79
2021/06/25 01:18:05;;;;;;;30.02;5.97;;;;;;;24.22;51.03;94056.31;5061026;28;20068;-79
2021/06/25 01:20:32;;;;;;;21.92;5.90;;;;;;;24.24;51.04;94058.63;5063862;28;20111;-79
2021/06/25 01:22:58;;;;;;;27.58;6.50;;;;;;;24.21;51.36;94071.09;5059863;28;20100;-79
2021/06/25 01:25:28;;;;;;;35.05;7.05;;;;;;;24.19;51.69;94057.09;5067090;28;20093;-79
2021/06/25 01:27:57;;;;;;;24.38;6.85;;;;;;;24.22;51.53;94058.22;5048782;28;20166;-78
2021/06/25 01:30:25;;;;;;;31.98;7.68;;;;;;;24.22;50.93;94056.31;5053831;28;20025;-78
2021/06/25 01:32:52;;;;;;;26.52;6.47;;;;;;;24.18;51.06;94044.66;5071988;28;20115;-78
2021/06/25 01:35:17;;;;;;;19.33;6.55;;;;;;;24.16;51.37;94047.00;5071697;28;20139;-78
2021/06/25 01:37:43;;;;;;;32.05;6.47;;;;;;;24.15;51.80;94061.78;5056747;28;20103;-78
2021/06/25 01:40:11;;;;;;;29.08;6.28;;;;;;;24.13;51.93;94064.09;5068697;28;20029;-78
2021/06/25 01:42:39;;;;;;;28.77;7.22;;;;;;;24.13;52.11;94055.94;5053637;28;20037;-78
2021/06/25 01:45:11;;;;;;;23.42;6.68;;;;;;;24.07;52.79;94065.69;5053277;28;20140;-79
2021/06/25 01:47:39;;;;;;;27.90;6.85;;;;;;;23.94;52.90;94057.19;5058178;28;20439;-79
2021/06/25 01:50:08;;;;;;;31.05;7.70;;;;;;;23.91;53.23;94054.47;5058133;28;20483;-79
2021/06/25 01:52:34;;;;;;;21.42;6.00;;;;;;;23.80;53.21;94052.53;5063932;28;20499;-79
2021/06/25 01:54:59;;;;;;;28.73;7.18;;;;;;;23.72;53.88;94056.41;5061946;28;20029;-79
2021/06/25 01:57:25;;;;;;;21.42;7.13;;;;;;;23.66;53.65;94047.09;5054962;28;20116;-79
2021/06/25 01:59:51;;;;;;;26.05;6.43;;;;;;;23.63;54.05;94037.03;5064433;28;20039;-77
2021/06/25 02:02:16;;;;;;;20.48;6.43;;;;;;;23.56;54.31;94040.50;5064859;28;20047;-78
2021/06/25 02:04:42;;;;;;;31.67;7.28;;;;;;;23.57;54.22;94044.00;5057459;28;20404;-78
2021/06/25 02:07:07;;;;;;;23.05;7.70;;;;;;;23.46;54.78;94048.69;5065484;28;20503;-78
2021/06/25 02:09:33;;;;;;;27.80;6.65;;;;;;;23.41;55.27;94052.59;5070725;28;20119;-77
2021/06/25 02:11:59;;;;;;;30.25;6.63;;;;;;;23.37;54.86;94043.66;5067387;28;20064;-77
2021/06/25 02:14:24;;;;;;;17.88;6.10;;;;;;;23.29;55.71;94059.19;5057102;28;20052;-77
2021/06/25 02:16:50;;;;;;;26.02;7.07;;;;;;;23.22;55.72;94056.47;5059517;28;20112;-77
2021/06/25 02:19:16;;;;;;;27.35;6.15;;;;;;;23.18;55.95;94051.06;5062266;28;20399;-78
2021/06/25 02:21:41;;;;;;;31.85;7.68;;;;;;;23.14;56.12;94050.28;5060178;28;20028;-79
2021/06/25 02:24:07;;;;;;;28.38;6.10;;;;;;;23.09;56.01;94047.94;5063066;28;20514;-78
2021/06/25 02:26:32;;;;;;;28.27;6.28;;;;;;;23.07;56.46;94049.50;5062727;28;20462;-83
2021/06/25 02:28:58;;;;;;;27.35;8.02;;;;;;;23.01;56.57;94047.16;5062012;28;20040;-82
2021/06/25 02:31:24;;;;;;;24.05;6.55;;;;;;;22.96;56.21;94042.09;5056511;28;20033;-82
2021/06/25 02:33:49;;;;;;;32.10;6.80;;;;;;;22.94;56.47;94041.69;5066881;28;20475;-78
2021/06/25 02:36:15;;;;;;;32.67;6.90;;;;;;;22.88;57.32;94037.00;5065499;28;20033;-78
2021/06/25 02:38:40;;;;;;;29.42;7.78;;;;;;;22.80;57.63;94036.25;5066761;28;20024;-78
2021/06/25 02:41:06;;;;;;;23.27;6.47;;;;;;;22.82;56.38;94036.63;5059755;28;20053;-82
2021/06/25 02:43:31;;;;;;;25.38;6.90;;;;;;;22.76;56.37;94035.47;5060089;28;20120;-82
2021/06/25 02:45:57;;;;;;;24.50;6.43;;;;;;;22.73;57.58;94042.44;5067150;28;20036;-82
2021/06/25 02:48:22;;;;;;;33.35;7.35;;;;;;;22.69;58.27;94040.88;5068433;28;20024;-81
2021/06/25 02:50:48;;;;;;;28.88;6.55;;;;;;;22.63;58.22;94035.84;5065728;28;20553;-80
2021/06/25 02:53:13;;;;;;;30.10;7.40;;;;;;;22.61;58.18;94037.38;5054981;28;20499;-80
2021/06/25 02:55:50;;;;;;;29.73;7.15;;;;;;;22.57;58.43;94034.66;5052684;28;20118;-80
2021/06/25 02:58:20;;;;;;;28.80;7.00;;;;;;;22.55;58.62;94042.41;5069911;28;20032;-80
2021/06/25 03:00:46;;;;;;;25.77;7.50;;;;;;;22.51;58.38;94041.63;5051783;28;20033;-81
2021/06/25 03:03:12;;;;;;;27.75;6.95;;;;;;;22.48;58.79;94053.25;5059982;28;20036;-81
2021/06/25 03:05:38;;;;;;;31.60;7.28;;;;;;;22.49;58.66;94060.25;5051814;28;20021;-82
2021/06/25 03:08:03;;;;;;;19.17;7.07;;;;;;;22.47;58.69;94059.88;5051795;28;20051;-82
2021/06/25 03:10:29;;;;;;;22.52;6.45;;;;;;;22.46;58.85;94060.25;5051774;28;20024;-82
2021/06/25 03:12:54;;;;;;;26.98;7.50;;;;;;;22.41;59.30;94064.13;5051515;28;20115;-82
2021/06/25 03:15:20;;;;;;;21.05;7.32;;;;;;;22.37;58.97;94064.09;5051636;28;20017;-82
2021/06/25 03:17:45;;;;;;;27.52;8.70;;;;;;;22.37;59.03;94058.66;5059595;28;20024;-77
2021/06/25 03:20:11;;;;;;;39.05;7.93;;;;;;;22.42;59.02;94065.66;5061752;28;20031;-79
2021/06/25 03:22:40;;;;;;;27.77;7.88;;;;;;;22.43;58.94;94053.66;5065462;28;20048;-80
2021/06/25 03:25:09;;;;;;;26.85;6.45;;;;;;;22.47;58.95;94057.16;5064336;28;20020;-80
2021/06/25 03:27:36;;;;;;;24.65;6.82;;;;;;;22.51;58.96;94057.13;5062107;28;20068;-80
2021/06/25 03:30:04;;;;;;;40.50;8.02;;;;;;;22.55;59.04;94058.72;5064594;28;20052;-80
2021/06/25 03:32:29;;;;;;;19.70;7.97;;;;;;;22.61;58.35;94062.63;5061938;28;20032;-79
2021/06/25 03:34:55;;;;;;;48.90;7.63;;;;;;;22.62;58.18;94063.38;5060521;28;20029;-81
2021/06/25 03:37:21;;;;;;;34.58;7.07;;;;;;;22.66;58.11;94060.69;5054499;28;20025;-82
2021/06/25 03:39:46;;;;;;;33.60;6.80;;;;;;;22.62;57.76;94058.72;5053024;28;20020;-81
2021/06/25 03:42:12;;;;;;;23.38;7.00;;;;;;;22.66;58.22;94063.41;5058503;28;20479;-83
2021/06/25 03:44:37;;;;;;;27.75;6.93;;;;;;;22.70;58.96;94064.19;5057984;28;20028;-82
2021/06/25 03:47:03;;;;;;;30.20;8.07;;;;;;;22.74;59.15;94062.25;5062829;28;20024;-83
2021/06/25 03:49:28;;;;;;;32.58;7.03;;;;;;;22.73;59.70;94066.88;5057476;28;20114;-82
2021/06/25 03:51:54;;;;;;;30.65;7.57;;;;;;;22.78;59.45;94063.03;5059671;28;20036;-82
2021/06/25 03:54:19;;;;;;;25.67;7.90;;;;;;;22.83;60.01;94060.69;5060574;28;20178;-82
2021/06/25 03:56:45;;;;;;;25.98;7.78;;;;;;;22.84;60.62;94067.69;5058418;28;20036;-83
2021/06/25 03:59:10;;;;;;;26.02;7.07;;;;;;;22.88;60.67;94065.00;5060527;28;20021;-83
2021/06/25 04:01:35;;;;;;;24.58;6.97;;;;;;;22.92;60.30;94070.41;5058420;28;20024;-83
2021/06/25 04:04:01;;;;;;;29.95;7.60;;;;;;;22.98;60.44;94066.94;5061306;28;20029;-83
2021/06/25 04:06:26;;;;;;;31.02;7.60;;;;;;;23.02;61.00;94065.03;5058592;28;20021;-82
2021/06/25 04:08:52;;;;;;;32.05;8.63;;;;;;;23.06;60.32;94059.59;5063680;28;20171;-82
2021/06/25 04:11:18;;;;;;;37.08;8.85;;;;;;;23.17;60.62;94065.03;5064569;28;20187;-82
2021/06/25 04:13:43;;;;;;;20.50;7.35;;;;;;;23.20;60.55;94067.75;5061224;28;20508;-82
2021/06/25 04:16:09;;;;;;;33.13;8.75;;;;;;;23.29;59.69;94066.59;5055721;28;20021;-82
2021/06/25 04:18:34;;;;;;;22.45;8.88;;;;;;;23.36;59.85;94067.34;5064984;28;20584;-80
2021/06/25 04:21:00;;;;;;;21.70;7.75;;;;;;;23.48;61.04;94070.84;5068389;28;20032;-80
2021/06/25 04:23:26;;;;;;;49.65;8.80;;;;;;;23.50;60.14;94072.00;5058701;28;20129;-80
2021/06/25 04:25:52;;;;;;;22.63;7.47;;;;;;;23.57;60.12;94069.28;5050347;28;20027;-80
2021/06/25 04:28:18;;;;;;;37.53;8.63;;;;;;;23.63;59.82;94065.00;5057918;28;20028;-80
2021/06/25 04:30:45;;;;;;;27.20;8.55;;;;;;;23.67;59.37;94062.28;5057989;28;20156;-80
2021/06/25 04:33:14;;;;;;;32.90;9.48;;;;;;;23.67;58.55;94064.19;5057344;28;20431;-80
2021/06/25 04:35:46;;;;;;;22.95;8.38;;;;;;;23.71;58.60;94065.78;5060226;28;20029;-80
2021/06/25 04:38:12;;;;;;;24.60;8.93;;;;;;;23.76;58.48;94046.31;5056123;28;20025;-80
2021/06/25 04:40:40;;;;;;;33.47;8.00;;;;;;;23.85;59.25;94056.81;5057265;28;20089;-79
2021/06/25 04:43:08;;;;;;;27.42;8.68;;;;;;;23.93;58.36;94049.41;5068841;28;20089;-79
2021/06/25 04:45:38;;;;;;;30.52;8.30;;;;;;;24.00;58.74;94050.16;5061117;28;20025;-79
2021/06/25 04:48:05;;;;;;;34.83;8.77;;;;;;;24.08;58.05;94050.91;5051307;28;20092;-79
2021/06/25 04:50:31;;;;;;;31.70;8.02;;;;;;;24.16;57.53;94044.28;5059377;28;20167;-81
2021/06/25 04:52:56;;;;;;;32.97;10.00;;;;;;;24.26;57.09;94050.81;5061920;28;20024;-81
2021/06/25 04:55:21;;;;;;;41.22;11.75;;;;;;;24.37;57.92;94057.00;5057723;28;20067;-80
2021/06/25 04:57:52;;;;;;;22.85;8.05;;;;;;;24.42;57.31;94062.06;5060102;28;20024;-80
2021/06/25 05:00:19;;;;;;;39.35;11.13;;;;;;;24.47;56.69;94060.88;5064934;28;20082;-80
2021/06/25 05:02:44;;;;;;;31.75;8.70;;;;;;;24.59;56.00;94063.16;5064534;28;20043;-79
2021/06/25 05:05:10;;;;;;;49.17;8.82;;;;;;;24.67;54.83;94063.91;5057986;28;20020;-79
2021/06/25 05:07:36;;;;;;;25.48;8.43;;;;;;;24.73;55.93;94064.25;5059807;28;20042;-80
2021/06/25 05:10:02;;;;;;;34.28;9.40;;;;;;;24.78;56.09;94067.31;5068569;28;20462;-80
2021/06/25 05:12:28;;;;;;;37.28;9.50;;;;;;;24.86;55.34;94070.03;5066423;28;20495;-80
2021/06/25 05:14:54;;;;;;;40.13;9.00;;;;;;;24.94;54.10;94069.56;5063186;28;20110;-81
2021/06/25 05:17:19;;;;;;;38.65;8.27;;;;;;;24.97;54.68;94063.34;5058402;28;20082;-81
2021/06/25 05:19:45;;;;;;;36.83;8.68;;;;;;;24.98;54.93;94059.41;5062919;28;20455;-81
2021/06/25 05:22:10;;;;;;;38.63;10.40;;;;;;;24.99;55.51;94060.97;5057397;28;20504;-81
2021/06/25 05:24:36;;;;;;;34.47;8.82;;;;;;;25.02;55.10;94062.88;5059307;28;20404;-79
2021/06/25 05:27:02;;;;;;;41.50;9.32;;;;;;;25.01;55.23;94055.91;5062123;28;20472;-82
2021/06/25 05:29:27;;;;;;;32.28;10.40;;;;;;;25.07;54.70;94055.47;5064722;28;20029;-82
2021/06/25 05:31:53;;;;;;;36.17;9.13;;;;;;;25.09;55.28;94061.28;5065076;28;20048;-81
2021/06/25 05:34:19;;;;;;;57.40;12.82;;;;;;;25.12;54.87;94060.50;5057576;28;20116;-79
2021/06/25 05:36:44;;;;;;;45.92;10.38;;;;;;;25.14;54.75;94067.09;5060479;28;20041;-78
2021/06/25 05:39:10;;;;;;;42.45;10.82;;;;;;;25.16;54.68;94062.00;5062804;28;20020;-80
2021/06/25 05:41:35;;;;;;;49.53;9.35;;;;;;;25.19;54.98;94060.44;5068895;28;20032;-79
2021/06/25 05:44:00;;;;;;;44.90;10.57;;;;;;;25.27;53.56;94064.69;5065487;28;20025;-80
2021/06/25 05:46:26;;;;;;;36.58;9.73;;;;;;;25.31;53.41;94068.16;5067445;28;20017;-79
2021/06/25 05:48:51;;;;;;;37.42;8.40;;;;;;;25.33;52.28;94068.53;5062947;28;20458;-80
2021/06/25 05:51:17;;;;;;;49.65;10.52;;;;;;;25.27;52.19;94074.81;5060067;28;20108;-80
2021/06/25 05:53:42;;;;;;;33.50;8.80;;;;;;;25.32;51.74;94067.00;5063405;28;20029;-85
2021/06/25 05:56:08;;;;;;;55.80;9.95;;;;;;;25.39;53.85;94064.19;5060288;28;20029;-80
2021/06/25 05:58:34;;;;;;;40.40;8.25;;;;;;;25.51;54.95;94070.34;5062040;28;20123;-80
2021/06/25 06:00:59;;;;;;;45.72;9.48;;;;;;;25.63;53.67;94075.28;5061538;28;20107;-80
2021/06/25 06:03:25;;;;;;;34.25;10.05;;;;;;;25.60;52.03;94073.34;5062716;28;20060;-80
2021/06/25 06:05:50;;;;;;;47.63;11.07;;;;;;;25.65;51.99;94067.47;5062610;28;20103;-79
2021/06/25 06:08:16;;;;;;;35.38;9.02;;;;;;;25.66;52.89;94074.47;5064484;28;20089;-85
2021/06/25 06:10:41;;;;;;;38.25;10.25;;;;;;;25.64;53.29;94074.09;5060332;28;20035;-81
2021/06/25 06:13:07;;;;;;;35.30;9.63;;;;;;;25.70;52.96;94075.22;5071991;28;20048;-82
2021/06/25 06:15:34;;;;;;;41.17;10.43;;;;;;;25.73;52.52;94071.69;5061106;28;20037;-81
2021/06/25 06:18:01;;;;;;;27.08;8.88;;;;;;;25.79;52.14;94075.53;5058240;28;20420;-80
2021/06/25 06:20:27;;;;;;;35.58;9.10;;;;;;;25.88;51.69;94072.31;5062211;28;20081;-82
2021/06/25 06:36:22;;;;;;;39.22;9.27;;;;;;;26.52;50.33;94070.84;5071696;28;20020;-72
2021/06/25 06:38:47;;;;;;;28.10;8.20;;;;;;;26.54;49.74;94073.13;5071622;28;20082;-72
2021/06/25 06:41:13;;;;;;;33.97;9.93;;;;;;;26.51;49.35;94061.06;5070045;28;20028;-72
2021/06/25 06:43:40;;;;;;;34.83;11.05;;;;;;;26.57;49.84;94067.66;5063604;28;20102;-72
2021/06/25 06:46:08;;;;;;;30.90;8.90;;;;;;;26.60;49.55;94064.13;5058708;28;20024;-72
2021/06/25 06:48:34;;;;;;;37.08;10.25;;;;;;;26.72;48.27;94062.78;5064211;28;21397;-65
2021/06/25 06:50:59;;;;;;;42.25;10.95;;;;;;;26.77;48.00;94059.59;5055662;28;20021;-65
2021/06/25 06:53:24;;;;;;;35.67;11.00;;;;;;;26.79;48.10;94065.41;5055131;28;20119;-68
2021/06/25 06:55:50;;;;;;;42.40;10.80;;;;;;;26.85;48.89;94059.47;5071179;28;20020;-77
2021/06/25 06:58:15;;;;;;;34.45;11.07;;;;;;;26.82;48.19;94050.13;5062248;28;20025;-77
2021/06/25 07:00:41;;;;;;;34.55;10.77;;;;;;;26.88;48.64;94053.97;5057019;28;20078;-77
2021/06/25 07:03:06;;;;;;;22.70;9.13;;;;;;;26.95;48.47;94059.34;5071812;28;20028;-77
2021/06/25 07:05:32;;;;;;;36.95;10.57;;;;;;;27.02;48.08;94064.69;5063493;28;20021;-77
2021/06/25 07:07:57;;;;;;;37.03;10.30;;;;;;;27.02;48.19;94061.94;5051027;28;20481;-77
2021/06/25 07:10:22;;;;;;;37.83;10.18;;;;;;;27.13;48.55;94061.00;5050332;28;20021;-77
2021/06/25 07:12:48;;;;;;;37.30;10.60;;;;;;;27.11;49.18;94071.59;5053089;28;20053;-76
2021/06/25 07:15:13;;;;;;;35.00;9.43;;;;;;;27.15;50.04;94066.84;5054150;28;20021;-76
2021/06/25 07:17:39;;;;;;;42.97;10.25;;;;;;;27.21;49.75;94070.66;5057191;28;20035;-76
2021/06/25 07:20:05;;;;;;;37.80;9.70;;;;;;;27.27;49.43;94069.03;5065387;28;20036;-76
2021/06/25 07:22:31;;;;;;;33.78;10.75;;;;;;;27.34;49.84;94071.66;5070845;28;20025;-75
2021/06/25 07:24:57;;;;;;;46.30;10.07;;;;;;;27.45;49.55;94066.00;5069347;28;20038;-76
2021/06/25 07:27:22;;;;;;;41.42;9.85;;;;;;;27.60;50.02;94063.81;5066110;28;20029;-74
2021/06/25 07:29:47;;;;;;;40.90;11.35;;;;;;;27.73;49.32;94069.47;5049682;28;20021;-74
2021/06/25 07:32:13;;;;;;;39.47;10.27;;;;;;;27.85;49.05;94059.88;5059104;28;20035;-74
2021/06/25 07:34:38;;;;;;;40.97;11.73;;;;;;;27.95;47.88;94061.66;5064305;28;20021;-75
2021/06/25 07:37:05;;;;;;;35.45;9.32;;;;;;;28.02;47.91;94056.81;5070303;28;20490;-77
2021/06/25 07:39:30;;;;;;;38.47;11.27;;;;;;;27.99;48.27;94054.91;5058430;28;20385;-76
2021/06/25 07:41:56;;;;;;;36.40;11.35;;;;;;;27.99;47.86;94062.38;5065641;28;20031;-77
2021/06/25 07:44:21;;;;;;;36.38;9.60;;;;;;;28.07;46.97;94057.50;5065767;28;20025;-75
2021/06/25 07:46:46;;;;;;;43.85;11.73;;;;;;;28.11;46.55;94053.53;5069421;28;20028;-76
2021/06/25 07:49:12;;;;;;;38.75;9.93;;;;;;;28.17;47.39;94056.53;5057582;28;20107;-77
2021/06/25 07:51:37;;;;;;;40.05;10.85;;;;;;;28.23;48.07;94051.34;5058532;28;20028;-75
2021/06/25 07:54:03;;;;;;;49.78;11.10;;;;;;;28.32;46.70;94043.34;5066874;28;20100;-76
2021/06/25 07:56:28;;;;;;;42.92;9.68;;;;;;;28.31;46.09;94042.56;5056087;28;20123;-75
2021/06/25 07:58:55;;;;;;;33.55;10.18;;;;;;;28.37;46.47;94043.63;5055208;28;20028;-75
2021/06/25 08:01:22;;;;;;;41.55;12.05;;;;;;;28.39;45.92;94043.19;5055973;28;20484;-75
2021/06/25 08:03:48;;;;;;;50.53;11.13;;;;;;;28.47;47.20;94041.06;5065035;28;20035;-75
2021/06/25 08:06:13;;;;;;;50.13;11.25;;;;;;;28.54;46.85;94052.69;5054323;28;20025;-76
2021/06/25 08:08:39;;;;;;;53.13;11.25;;;;;;;28.58;46.40;94050.63;5067294;28;20105;-75
2021/06/25 08:11:04;;;;;;;39.22;10.63;;;;;;;28.66;46.64;94043.03;5066467;28;20039;-75
2021/06/25 08:13:29;;;;;;;47.33;12.93;;;;;;;28.77;46.16;94053.78;5069641;28;20037;-76
2021/06/25 08:15:55;;;;;;;47.42;11.05;;;;;;;28.84;46.52;94042.63;5057577;28;20122;-77
2021/06/25 08:18:20;;;;;;;31.90;10.65;;;;;;;28.96;46.52;94049.41;5049123;28;20031;-76
2021/06/25 08:20:46;;;;;;;42.55;11.23;;;;;;;29.07;45.50;94049.97;5053151;28;20035;-74
2021/06/25 08:23:12;;;;;;;34.70;10.07;;;;;;;29.13;46.00;94042.03;5064778;28;20033;-75
2021/06/25 08:25:38;;;;;;;32.67;10.75;;;;;;;29.26;45.94;94044.84;5047547;28;20107;-74
2021/06/25 08:28:05;;;;;;;37.05;9.90;;;;;;;29.38;44.67;94041.41;5049384;28;20032;-77
2021/06/25 08:30:30;;;;;;;42.05;10.48;;;;;;;29.50;45.21;94043.47;5055158;28;20078;-75
2021/06/25 08:32:56;;;;;;;33.03;10.23;;;;;;;29.63;44.34;94048.25;5066534;28;20419;-74
2021/06/25 08:35:22;;;;;;;41.83;9.75;;;;;;;29.74;43.99;94046.03;5055524;28;20098;-72
2021/06/25 08:37:48;;;;;;;30.42;9.10;;;;;;;29.83;42.94;94051.69;5056818;28;20037;-71
2021/06/25 08:40:14;;;;;;;32.17;9.93;;;;;;;29.96;42.21;94046.22;5056789;28;20116;-71
2021/06/25 08:42:40;;;;;;;36.70;8.80;;;;;;;30.12;39.68;94053.66;5058193;28;20053;-71
2021/06/25 08:45:08;;;;;;;28.23;7.72;;;;;;;30.28;38.39;94052.84;5066335;28;20457;-71
2021/06/25 08:47:40;;;;;;;25.60;6.18;;;;;;;30.43;32.98;94045.78;5059129;28;20055;-70
2021/06/25 08:50:08;;;;;;;25.70;6.28;;;;;;;30.55;33.92;94042.28;5057378;28;20033;-71
2021/06/25 08:52:34;;;;;;;29.45;6.68;;;;;;;30.65;33.43;94045.13;5056932;28;20102;-71
2021/06/25 08:54:59;;;;;;;27.50;7.55;;;;;;;30.84;33.78;94052.41;5060723;28;20016;-71
2021/06/25 08:57:24;;;;;;;45.17;7.72;;;;;;;30.87;33.85;94034.25;5055507;28;20416;-71
2021/06/25 08:59:51;;;;;;;20.35;6.07;;;;;;;30.89;31.96;94040.13;5054685;28;20020;-71
2021/06/25 09:02:18;;;;;;;22.40;5.57;;;;;;;30.97;33.34;94033.19;5061103;28;20518;-72
2021/06/25 09:04:47;;;;;;;34.15;6.45;;;;;;;31.08;31.26;94033.63;5057998;28;20415;-71
2021/06/25 09:07:12;;;;;;;31.30;6.45;;;;;;;31.23;31.07;94039.44;5050599;28;20083;-71
2021/06/25 09:09:41;;;;;;;38.33;6.35;;;;;;;31.37;30.48;94029.97;5051621;28;20029;-70
2021/06/25 09:12:08;;;;;;;24.05;6.45;;;;;;;31.44;31.05;94029.75;5058552;28;20030;-71
2021/06/25 09:15:12;;;;;;;34.03;6.07;;;;;;;31.44;31.49;94020.69;5056689;28;20061;-72
2021/06/25 09:17:59;;;;;;;31.13;6.70;;;;;;;31.60;30.98;94028.84;5065745;28;20037;-72
2021/06/25 09:20:36;;;;;;;32.92;6.45;;;;;;;31.76;31.31;94019.66;5051316;28;20112;-72
2021/06/25 09:23:04;;;;;;;32.30;7.15;;;;;;;31.90;32.07;94019.16;5064837;28;20486;-73
2021/06/25 09:25:30;;;;;;;17.60;5.75;;;;;;;32.01;32.53;94021.53;5057946;28;20109;-73
2021/06/25 09:27:58;;;;;;;22.30;5.57;;;;;;;31.98;31.73;94016.91;5060213;28;20111;-72
2021/06/25 09:30:26;;;;;;;41.95;6.88;;;;;;;31.95;32.79;94015.03;5060569;28;20029;-72
2021/06/25 09:32:52;;;;;;;36.20;6.03;;;;;;;32.08;33.42;94021.31;5055025;28;20020;-72
2021/06/25 09:35:19;;;;;;;32.42;5.15;;;;;;;32.07;26.59;94017.00;5053599;28;20028;-72
2021/06/25 09:37:47;;;;;;;27.50;4.80;;;;;;;32.08;27.89;94015.78;5064429;28;20167;-72
2021/06/25 09:40:16;;;;;;;24.55;4.57;;;;;;;32.04;28.42;94014.38;5060818;28;20484;-72
2021/06/25 09:42:44;;;;;;;18.77;4.22;;;;;;;32.04;25.78;94009.66;5062386;28;20024;-72
2021/06/25 09:45:15;;;;;;;33.55;4.70;;;;;;;31.99;28.70;94013.72;5060164;28;20020;-72
2021/06/25 09:47:52;;;;;;;25.60;5.38;;;;;;;32.05;29.08;94015.91;5057892;28;20377;-72
2021/06/25 09:50:21;;;;;;;25.38;5.07;;;;;;;32.18;27.90;94020.16;5058856;28;20077;-72
2021/06/25 09:52:59;;;;;;;39.38;5.30;;;;;;;32.22;26.14;94010.97;5059879;28;20040;-72
2021/06/25 09:55:49;;;;;;;31.30;5.75;;;;;;;32.27;27.44;94008.41;5061091;28;20032;-71
2021/06/25 10:03:48;;;;;;;37.45;6.80;;;;;;;32.53;27.19;94000.75;5064003;28;20459;-71
2021/06/25 10:06:16;;;;;;;23.33;5.55;;;;;;;32.55;27.62;94005.84;5057720;28;20056;-72
2021/06/25 10:08:44;;;;;;;27.65;4.88;;;;;;;32.43;28.42;94001.16;5060250;28;20530;-70
2021/06/25 10:11:12;;;;;;;33.95;6.93;;;;;;;32.42;29.72;94000.38;5061743;28;20091;-71
2021/06/25 10:13:40;;;;;;;26.83;5.80;;;;;;;32.43;30.09;94001.91;5064610;28;21908;-71
2021/06/25 10:16:07;;;;;;;29.30;6.28;;;;;;;32.52;28.29;94007.47;5060802;28;20508;-71
2021/06/25 10:18:44;;;;;;;36.10;5.55;;;;;;;32.56;30.10;93994.34;5062639;28;20036;-71
2021/06/25 10:21:15;;;;;;;21.40;6.22;;;;;;;32.68;29.38;93991.97;5060277;28;20029;-71
2021/06/25 10:23:49;;;;;;;42.47;5.43;;;;;;;32.77;27.87;93994.75;5064946;28;20506;-70
2021/06/25 10:26:16;;;;;;;27.83;5.32;;;;;;;32.85;28.31;93995.25;5062572;28;20025;-71
2021/06/25 10:28:44;;;;;;;23.60;5.57;;;;;;;32.74;27.30;93990.91;5055668;28;20035;-71
2021/06/25 10:31:11;;;;;;;31.48;4.70;;;;;;;32.67;27.31;93982.13;5063467;28;20025;-72
2021/06/25 10:33:38;;;;;;;29.08;6.20;;;;;;;32.74;26.62;93988.16;5063426;28;20031;-72
2021/06/25 10:36:08;;;;;;;34.47;5.55;;;;;;;32.74;26.06;93979.88;5065931;28;20022;-71
2021/06/25 10:38:34;;;;;;;29.70;5.20;;;;;;;32.79;25.89;93970.22;5070339;28;20020;-70
2021/06/25 10:41:02;;;;;;;30.17;5.80;;;;;;;32.87;26.91;93988.06;5057606;28;20024;-77
2021/06/25 10:43:38;;;;;;;25.63;5.18;;;;;;;32.92;26.59;93967.38;5071223;28;20024;-76
2021/06/25 10:46:03;;;;;;;24.95;4.60;;;;;;;32.90;27.00;93965.06;5071396;28;20025;-77
2021/06/25 10:48:39;;;;;;;29.33;5.97;;;;;;;32.96;27.18;93957.72;5071118;28;20388;-77
2021/06/25 10:51:27;;;;;;;36.40;6.30;;;;;;;33.09;26.11;93963.13;5070924;28;20016;-77
2021/06/25 10:54:13;;;;;;;37.85;5.72;;;;;;;33.24;24.33;93963.34;5053790;28;20025;-77
2021/06/25 10:56:59;;;;;;;31.92;5.95;;;;;;;33.29;24.87;93971.00;5049494;28;20095;-77
2021/06/25 10:59:27;;;;;;;28.00;6.15;;;;;;;33.28;24.27;93963.97;5043488;28;20489;-77
2021/06/25 11:01:57;;;;;;;40.08;6.90;;;;;;;33.38;24.09;93960.00;5048994;28;20021;-77
2021/06/25 11:04:48;;;;;;;35.13;4.97;;;;;;;33.41;23.46;93957.53;5050659;28;20021;-77
2021/06/25 11:07:19;;;;;;;42.07;8.33;;;;;;;33.53;24.09;93953.84;5061961;28;20036;-79
2021/06/25 11:09:54;;;;;;;49.97;5.45;;;;;;;33.69;22.94;93945.28;5063415;28;20867;-79
2021/06/25 11:12:21;;;;;;;37.20;5.30;;;;;;;33.84;22.39;93948.19;5057917;28;20020;-78
2021/06/25 11:14:51;;;;;;;29.52;5.22;;;;;;;33.96;22.41;93946.50;5057094;28;20488;-79
2021/06/25 11:17:49;;;;;;;29.05;4.60;;;;;;;34.09;23.39;93944.31;5056319;28;20029;-75
2021/06/25 11:20:17;;;;;;;46.10;6.60;;;;;;;34.18;22.75;93949.13;5062830;28;20024;-81
2021/06/25 11:22:49;;;;;;;40.58;6.25;;;;;;;34.24;23.75;93946.50;5050523;28;20029;-77
2021/06/25 11:25:52;;;;;;;35.47;5.93;;;;;;;34.22;22.63;93940.66;5056243;28;20442;-77
2021/06/25 11:28:26;;;;;;;33.08;5.22;;;;;;;34.15;23.80;93948.06;5056420;28;20033;-81
2021/06/25 11:30:59;;;;;;;33.58;5.00;;;;;;;34.14;21.29;93957.56;5050357;28;20098;-78
2021/06/25 11:33:30;;;;;;;25.85;5.97;;;;;;;34.13;23.69;93950.50;5058725;28;20032;-80
2021/06/25 11:36:20;;;;;;;48.55;6.50;;;;;;;34.09;24.21;93944.31;5048953;28;20029;-79
2021/06/25 11:38:52;;;;;;;25.25;4.18;;;;;;;34.06;23.81;93948.03;5050390;28;20040;-81
2021/06/25 11:41:18;;;;;;;38.20;5.10;;;;;;;33.96;21.39;93941.72;5058458;28;20055;-80
2021/06/25 11:43:47;;;;;;;24.58;5.35;;;;;;;33.94;22.22;93948.97;5064353;28;20078;-81